sensor_id;sensor_type;location;lat;lon;timestamp;temperature;humidity
15095;DHT22;7648;52.264;9.632;2023-02-26T00:02:04;-0.50;99.90
15095;DHT22;7648;52.264;9.632;2023-02-26T00:06:06;-0.60;99.90
15095;DHT22;7648;52.264;9.632;2023-02-26T00:10:10;-0.60;99.90
15095;DHT22;7648;52.264;9.632;2023-02-26T00:14:14;-0.70;99.90
15095;DHT22;7648;52.264;9.632;2023-02-26T00:18:18;-0.70;99.90
15095;DHT22;7648;52.264;9.632;2023-02-26T00:22:20;-0.70;99.90
15095;DHT22;7648;52.264;9.632;2023-02-26T00:26:24;-0.70;99.90
15095;DHT22;7648;52.264;9.632;2023-02-26T00:30:27;-0.70;99.90
15095;DHT22;7648;52.264;9.632;2023-02-26T00:34:31;-0.70;99.90
15095;DHT22;7648;52.264;9.632;2023-02-26T00:38:33;-0.70;99.90
15095;DHT22;7648;52.264;9.632;2023-02-26T00:42:37;-0.70;99.90
15095;DHT22;7648;52.264;9.632;2023-02-26T00:46:44;-0.60;99.90
15095;DHT22;7648;52.264;9.632;2023-02-26T00:50:54;-0.60;99.90
15095;DHT22;7648;52.264;9.632;2023-02-26T00:54:58;-0.60;99.90
15095;DHT22;7648;52.264;9.632;2023-02-26T00:59:00;-0.60;99.90
15095;DHT22;7648;52.264;9.632;2023-02-26T01:03:03;-0.50;99.90
15095;DHT22;7648;52.264;9.632;2023-02-26T01:07:08;-0.50;99.90
15095;DHT22;7648;52.264;9.632;2023-02-26T01:11:11;-0.40;99.90
15095;DHT22;7648;52.264;9.632;2023-02-26T01:15:13;-0.40;99.90
15095;DHT22;7648;52.264;9.632;2023-02-26T01:19:22;-0.50;99.90
15095;DHT22;7648;52.264;9.632;2023-02-26T01:23:31;-0.60;99.90
15095;DHT22;7648;52.264;9.632;2023-02-26T01:27:35;-0.50;99.90
15095;DHT22;7648;52.264;9.632;2023-02-26T01:31:40;-0.50;99.90
15095;DHT22;7648;52.264;9.632;2023-02-26T01:35:47;-0.50;99.90
15095;DHT22;7648;52.264;9.632;2023-02-26T01:40:02;-0.50;99.90
15095;DHT22;7648;52.264;9.632;2023-02-26T01:44:13;-0.40;99.90
15095;DHT22;7648;52.264;9.632;2023-02-26T01:48:21;-0.40;99.90
15095;DHT22;7648;52.264;9.632;2023-02-26T01:57:05;-0.40;99.90
15095;DHT22;7648;52.264;9.632;2023-02-26T02:01:08;-0.40;99.90
15095;DHT22;7648;52.264;9.632;2023-02-26T02:05:14;-0.40;99.90
15095;DHT22;7648;52.264;9.632;2023-02-26T02:09:20;-0.40;99.90
15095;DHT22;7648;52.264;9.632;2023-02-26T02:13:34;-0.40;99.90
15095;DHT22;7648;52.264;9.632;2023-02-26T02:17:44;-0.40;99.90
15095;DHT22;7648;52.264;9.632;2023-02-26T02:22:01;-0.40;99.90
15095;DHT22;7648;52.264;9.632;2023-02-26T02:30:55;-0.40;99.90
15095;DHT22;7648;52.264;9.632;2023-02-26T02:35:03;-0.40;99.90
15095;DHT22;7648;52.264;9.632;2023-02-26T02:39:12;-0.40;99.90
15095;DHT22;7648;52.264;9.632;2023-02-26T02:43:16;-0.40;99.90
15095;DHT22;7648;52.264;9.632;2023-02-26T02:47:21;-0.30;99.90
15095;DHT22;7648;52.264;9.632;2023-02-26T02:51:27;-0.40;99.90
15095;DHT22;7648;52.264;9.632;2023-02-26T02:55:33;-0.30;99.90
15095;DHT22;7648;52.264;9.632;2023-02-26T02:59:38;-0.40;99.90
15095;DHT22;7648;52.264;9.632;2023-02-26T03:03:49;-0.40;99.90
15095;DHT22;7648;52.264;9.632;2023-02-26T03:07:55;-0.40;99.90
15095;DHT22;7648;52.264;9.632;2023-02-26T03:11:57;-0.40;99.90
15095;DHT22;7648;52.264;9.632;2023-02-26T03:16:09;-0.40;99.90
15095;DHT22;7648;52.264;9.632;2023-02-26T03:20:21;-0.40;99.90
15095;DHT22;7648;52.264;9.632;2023-02-26T03:24:30;-0.40;99.90
15095;DHT22;7648;52.264;9.632;2023-02-26T03:28:37;-0.40;99.90
15095;DHT22;7648;52.264;9.632;2023-02-26T03:32:47;-0.40;99.90
15095;DHT22;7648;52.264;9.632;2023-02-26T03:36:57;-0.30;99.90
15095;DHT22;7648;52.264;9.632;2023-02-26T03:41:06;-0.30;99.90
15095;DHT22;7648;52.264;9.632;2023-02-26T03:45:11;-0.30;99.90
15095;DHT22;7648;52.264;9.632;2023-02-26T03:49:19;-0.30;99.90
15095;DHT22;7648;52.264;9.632;2023-02-26T03:53:38;-0.30;99.90
15095;DHT22;7648;52.264;9.632;2023-02-26T03:57:48;-0.30;99.90
15095;DHT22;7648;52.264;9.632;2023-02-26T04:02:16;-0.20;99.90
15095;DHT22;7648;52.264;9.632;2023-02-26T04:06:22;-0.30;99.90
15095;DHT22;7648;52.264;9.632;2023-02-26T04:10:39;-0.20;99.90
15095;DHT22;7648;52.264;9.632;2023-02-26T04:14:42;-0.30;99.90
15095;DHT22;7648;52.264;9.632;2023-02-26T04:18:44;-0.30;99.90
15095;DHT22;7648;52.264;9.632;2023-02-26T04:22:46;-0.30;99.90
15095;DHT22;7648;52.264;9.632;2023-02-26T04:26:50;-0.30;99.90
15095;DHT22;7648;52.264;9.632;2023-02-26T04:30:52;-0.30;99.90
15095;DHT22;7648;52.264;9.632;2023-02-26T04:34:54;-0.30;99.90
15095;DHT22;7648;52.264;9.632;2023-02-26T04:38:57;-0.30;99.90
15095;DHT22;7648;52.264;9.632;2023-02-26T04:43:01;-0.30;99.90
15095;DHT22;7648;52.264;9.632;2023-02-26T04:47:07;-0.20;99.90
15095;DHT22;7648;52.264;9.632;2023-02-26T04:51:11;-0.30;99.90
15095;DHT22;7648;52.264;9.632;2023-02-26T04:55:13;-0.30;99.90
15095;DHT22;7648;52.264;9.632;2023-02-26T04:59:16;-0.30;99.90
15095;DHT22;7648;52.264;9.632;2023-02-26T05:03:19;-0.30;99.90
15095;DHT22;7648;52.264;9.632;2023-02-26T05:07:21;-0.30;99.90
15095;DHT22;7648;52.264;9.632;2023-02-26T05:11:23;-0.30;99.90
15095;DHT22;7648;52.264;9.632;2023-02-26T05:15:27;-0.30;99.90
15095;DHT22;7648;52.264;9.632;2023-02-26T05:19:29;-0.30;99.90
15095;DHT22;7648;52.264;9.632;2023-02-26T05:23:31;-0.30;99.90
15095;DHT22;7648;52.264;9.632;2023-02-26T05:27:33;-0.20;99.90
15095;DHT22;7648;52.264;9.632;2023-02-26T05:31:36;-0.20;99.90
15095;DHT22;7648;52.264;9.632;2023-02-26T05:35:38;-0.20;99.90
15095;DHT22;7648;52.264;9.632;2023-02-26T05:39:40;-0.20;99.90
15095;DHT22;7648;52.264;9.632;2023-02-26T05:43:42;-0.20;99.90
15095;DHT22;7648;52.264;9.632;2023-02-26T05:47:45;-0.20;99.90
15095;DHT22;7648;52.264;9.632;2023-02-26T05:51:47;-0.30;99.90
15095;DHT22;7648;52.264;9.632;2023-02-26T05:55:49;-0.40;99.90
15095;DHT22;7648;52.264;9.632;2023-02-26T05:59:51;-0.50;99.90
15095;DHT22;7648;52.264;9.632;2023-02-26T06:03:54;-0.50;99.90
15095;DHT22;7648;52.264;9.632;2023-02-26T06:07:56;-0.60;99.90
15095;DHT22;7648;52.264;9.632;2023-02-26T06:11:58;-0.60;99.90
15095;DHT22;7648;52.264;9.632;2023-02-26T06:16:00;-0.70;99.90
15095;DHT22;7648;52.264;9.632;2023-02-26T06:20:03;-0.70;99.90
15095;DHT22;7648;52.264;9.632;2023-02-26T06:24:06;-0.70;99.90
15095;DHT22;7648;52.264;9.632;2023-02-26T06:28:08;-0.80;99.90
15095;DHT22;7648;52.264;9.632;2023-02-26T06:32:10;-0.90;99.90
15095;DHT22;7648;52.264;9.632;2023-02-26T06:36:13;-0.90;99.90
15095;DHT22;7648;52.264;9.632;2023-02-26T06:40:16;-0.90;99.90
15095;DHT22;7648;52.264;9.632;2023-02-26T06:44:18;-1.10;99.90
15095;DHT22;7648;52.264;9.632;2023-02-26T06:48:20;-1.10;99.90
15095;DHT22;7648;52.264;9.632;2023-02-26T06:52:23;-1.20;99.90
15095;DHT22;7648;52.264;9.632;2023-02-26T06:56:26;-1.20;99.90
15095;DHT22;7648;52.264;9.632;2023-02-26T07:00:27;-1.30;99.90
15095;DHT22;7648;52.264;9.632;2023-02-26T07:04:29;-1.20;99.90
15095;DHT22;7648;52.264;9.632;2023-02-26T07:08:33;-1.20;99.90
15095;DHT22;7648;52.264;9.632;2023-02-26T07:12:34;-1.20;99.90
15095;DHT22;7648;52.264;9.632;2023-02-26T07:16:37;-1.10;99.90
15095;DHT22;7648;52.264;9.632;2023-02-26T07:20:40;-1.10;99.90
15095;DHT22;7648;52.264;9.632;2023-02-26T07:24:44;-1.10;99.90
15095;DHT22;7648;52.264;9.632;2023-02-26T07:28:46;-1.00;99.90
15095;DHT22;7648;52.264;9.632;2023-02-26T07:32:48;-1.00;99.90
15095;DHT22;7648;52.264;9.632;2023-02-26T07:36:50;-1.00;99.90
15095;DHT22;7648;52.264;9.632;2023-02-26T07:40:55;-1.00;99.90
15095;DHT22;7648;52.264;9.632;2023-02-26T07:44:57;-0.90;99.90
15095;DHT22;7648;52.264;9.632;2023-02-26T07:48:59;-0.90;99.90
15095;DHT22;7648;52.264;9.632;2023-02-26T07:53:01;-0.80;99.90
15095;DHT22;7648;52.264;9.632;2023-02-26T07:57:04;-0.80;99.90
15095;DHT22;7648;52.264;9.632;2023-02-26T08:01:06;-0.70;99.90
15095;DHT22;7648;52.264;9.632;2023-02-26T08:05:08;-0.60;99.90
15095;DHT22;7648;52.264;9.632;2023-02-26T08:09:10;-0.50;99.90
15095;DHT22;7648;52.264;9.632;2023-02-26T08:13:13;-0.50;99.90
15095;DHT22;7648;52.264;9.632;2023-02-26T08:17:15;-0.30;99.90
15095;DHT22;7648;52.264;9.632;2023-02-26T08:21:17;-0.30;99.90
15095;DHT22;7648;52.264;9.632;2023-02-26T08:25:19;-0.20;99.90
15095;DHT22;7648;52.264;9.632;2023-02-26T08:29:22;-0.10;99.90
15095;DHT22;7648;52.264;9.632;2023-02-26T08:33:25;0.00;99.90
15095;DHT22;7648;52.264;9.632;2023-02-26T08:37:27;0.00;99.90
15095;DHT22;7648;52.264;9.632;2023-02-26T08:41:29;0.10;99.90
15095;DHT22;7648;52.264;9.632;2023-02-26T08:45:33;0.20;99.90
15095;DHT22;7648;52.264;9.632;2023-02-26T08:49:35;0.30;99.90
15095;DHT22;7648;52.264;9.632;2023-02-26T08:53:37;0.40;99.90
15095;DHT22;7648;52.264;9.632;2023-02-26T08:57:40;0.50;99.90
15095;DHT22;7648;52.264;9.632;2023-02-26T09:01:43;0.60;99.90
15095;DHT22;7648;52.264;9.632;2023-02-26T09:05:45;0.60;99.90
15095;DHT22;7648;52.264;9.632;2023-02-26T09:09:46;0.70;99.90
15095;DHT22;7648;52.264;9.632;2023-02-26T09:13:48;0.70;99.90
15095;DHT22;7648;52.264;9.632;2023-02-26T09:17:54;0.80;99.90
15095;DHT22;7648;52.264;9.632;2023-02-26T09:21:56;0.90;99.90
15095;DHT22;7648;52.264;9.632;2023-02-26T09:25:58;1.00;99.90
15095;DHT22;7648;52.264;9.632;2023-02-26T09:30:00;1.10;99.90
15095;DHT22;7648;52.264;9.632;2023-02-26T09:34:03;1.10;99.90
15095;DHT22;7648;52.264;9.632;2023-02-26T09:38:05;1.10;99.90
15095;DHT22;7648;52.264;9.632;2023-02-26T09:42:19;1.20;99.90
15095;DHT22;7648;52.264;9.632;2023-02-26T09:46:31;1.30;99.90
15095;DHT22;7648;52.264;9.632;2023-02-26T09:50:41;1.40;99.90
15095;DHT22;7648;52.264;9.632;2023-02-26T09:54:46;1.40;99.90
15095;DHT22;7648;52.264;9.632;2023-02-26T09:58:49;1.50;99.90
15095;DHT22;7648;52.264;9.632;2023-02-26T10:02:59;1.50;99.90
15095;DHT22;7648;52.264;9.632;2023-02-26T10:07:14;1.50;99.90
15095;DHT22;7648;52.264;9.632;2023-02-26T10:11:24;1.60;99.90
15095;DHT22;7648;52.264;9.632;2023-02-26T10:15:29;1.70;99.90
15095;DHT22;7648;52.264;9.632;2023-02-26T10:19:36;1.90;99.90
15095;DHT22;7648;52.264;9.632;2023-02-26T10:23:43;2.00;99.90
15095;DHT22;7648;52.264;9.632;2023-02-26T10:27:55;2.50;99.90
15095;DHT22;7648;52.264;9.632;2023-02-26T10:32:05;3.20;99.90
15095;DHT22;7648;52.264;9.632;2023-02-26T10:36:16;4.00;99.90
15095;DHT22;7648;52.264;9.632;2023-02-26T10:40:25;4.20;99.90
15095;DHT22;7648;52.264;9.632;2023-02-26T10:44:33;4.00;99.90
15095;DHT22;7648;52.264;9.632;2023-02-26T10:48:46;3.70;99.90
15095;DHT22;7648;52.264;9.632;2023-02-26T10:52:52;3.80;99.90
15095;DHT22;7648;52.264;9.632;2023-02-26T10:56:56;4.10;99.90
15095;DHT22;7648;52.264;9.632;2023-02-26T11:00:57;4.90;99.90
15095;DHT22;7648;52.264;9.632;2023-02-26T11:05:01;4.90;99.90
15095;DHT22;7648;52.264;9.632;2023-02-26T11:09:06;4.90;99.90
15095;DHT22;7648;52.264;9.632;2023-02-26T11:13:15;4.80;99.90
15095;DHT22;7648;52.264;9.632;2023-02-26T11:17:19;4.70;99.90
15095;DHT22;7648;52.264;9.632;2023-02-26T11:21:23;5.00;99.90
15095;DHT22;7648;52.264;9.632;2023-02-26T11:25:28;5.20;99.90
15095;DHT22;7648;52.264;9.632;2023-02-26T11:29:36;5.70;99.90
15095;DHT22;7648;52.264;9.632;2023-02-26T11:33:42;5.50;99.90
15095;DHT22;7648;52.264;9.632;2023-02-26T11:37:47;5.20;99.90
15095;DHT22;7648;52.264;9.632;2023-02-26T11:41:52;5.30;99.90
15095;DHT22;7648;52.264;9.632;2023-02-26T11:45:59;5.50;99.90
15095;DHT22;7648;52.264;9.632;2023-02-26T11:50:09;5.80;99.90
15095;DHT22;7648;52.264;9.632;2023-02-26T11:54:21;5.90;99.90
15095;DHT22;7648;52.264;9.632;2023-02-26T11:58:23;6.00;99.90
15095;DHT22;7648;52.264;9.632;2023-02-26T12:02:32;6.20;99.90
15095;DHT22;7648;52.264;9.632;2023-02-26T12:06:35;6.40;99.90
15095;DHT22;7648;52.264;9.632;2023-02-26T12:10:40;6.30;99.90
15095;DHT22;7648;52.264;9.632;2023-02-26T12:19:21;5.80;99.90
15095;DHT22;7648;52.264;9.632;2023-02-26T12:23:54;5.90;99.90
15095;DHT22;7648;52.264;9.632;2023-02-26T12:28:20;6.00;99.90
15095;DHT22;7648;52.264;9.632;2023-02-26T12:32:47;5.40;99.90
15095;DHT22;7648;52.264;9.632;2023-02-26T12:37:06;5.30;99.90
15095;DHT22;7648;52.264;9.632;2023-02-26T12:41:24;5.10;99.90
15095;DHT22;7648;52.264;9.632;2023-02-26T12:45:44;5.20;99.90
15095;DHT22;7648;52.264;9.632;2023-02-26T12:50:05;5.40;99.90
15095;DHT22;7648;52.264;9.632;2023-02-26T12:54:23;5.60;99.90
15095;DHT22;7648;52.264;9.632;2023-02-26T12:58:46;5.70;99.90
15095;DHT22;7648;52.264;9.632;2023-02-26T13:07:47;5.20;99.90
15095;DHT22;7648;52.264;9.632;2023-02-26T13:12:03;5.10;99.90
15095;DHT22;7648;52.264;9.632;2023-02-26T13:16:19;5.10;99.90
15095;DHT22;7648;52.264;9.632;2023-02-26T13:20:24;5.20;99.90
15095;DHT22;7648;52.264;9.632;2023-02-26T13:24:32;5.20;99.90
15095;DHT22;7648;52.264;9.632;2023-02-26T13:28:41;5.10;99.90
15095;DHT22;7648;52.264;9.632;2023-02-26T13:32:45;5.20;99.90
15095;DHT22;7648;52.264;9.632;2023-02-26T13:36:48;5.20;99.90
15095;DHT22;7648;52.264;9.632;2023-02-26T13:40:59;5.40;99.90
15095;DHT22;7648;52.264;9.632;2023-02-26T13:45:16;5.30;99.90
15095;DHT22;7648;52.264;9.632;2023-02-26T13:49:26;5.30;99.90
15095;DHT22;7648;52.264;9.632;2023-02-26T13:53:41;5.30;99.90
15095;DHT22;7648;52.264;9.632;2023-02-26T13:57:50;5.30;99.90
15095;DHT22;7648;52.264;9.632;2023-02-26T14:01:55;5.30;99.90
15095;DHT22;7648;52.264;9.632;2023-02-26T14:06:24;5.30;99.90
15095;DHT22;7648;52.264;9.632;2023-02-26T14:10:33;5.00;99.90
15095;DHT22;7648;52.264;9.632;2023-02-26T14:14:39;4.70;99.90
15095;DHT22;7648;52.264;9.632;2023-02-26T14:18:49;4.80;99.90
15095;DHT22;7648;52.264;9.632;2023-02-26T14:27:34;4.70;99.90
15095;DHT22;7648;52.264;9.632;2023-02-26T14:32:12;4.90;99.90
15095;DHT22;7648;52.264;9.632;2023-02-26T14:36:19;5.00;99.90
15095;DHT22;7648;52.264;9.632;2023-02-26T14:40:22;5.20;99.90
15095;DHT22;7648;52.264;9.632;2023-02-26T14:44:27;5.30;99.90
15095;DHT22;7648;52.264;9.632;2023-02-26T14:48:30;5.30;99.90
15095;DHT22;7648;52.264;9.632;2023-02-26T14:57:23;5.40;99.90
15095;DHT22;7648;52.264;9.632;2023-02-26T15:01:47;5.40;99.90
15095;DHT22;7648;52.264;9.632;2023-02-26T15:05:59;5.50;99.90
15095;DHT22;7648;52.264;9.632;2023-02-26T15:10:17;5.60;99.90
15095;DHT22;7648;52.264;9.632;2023-02-26T15:19:18;5.80;99.90
15095;DHT22;7648;52.264;9.632;2023-02-26T15:23:39;6.00;99.90
15095;DHT22;7648;52.264;9.632;2023-02-26T15:27:43;6.20;99.90
15095;DHT22;7648;52.264;9.632;2023-02-26T15:31:50;6.30;99.90
15095;DHT22;7648;52.264;9.632;2023-02-26T15:35:54;6.00;99.90
15095;DHT22;7648;52.264;9.632;2023-02-26T15:39:56;6.10;99.90
15095;DHT22;7648;52.264;9.632;2023-02-26T15:44:03;6.40;99.90
15095;DHT22;7648;52.264;9.632;2023-02-26T15:48:07;6.40;99.90
15095;DHT22;7648;52.264;9.632;2023-02-26T15:52:13;6.30;99.90
15095;DHT22;7648;52.264;9.632;2023-02-26T15:56:19;6.00;99.90
15095;DHT22;7648;52.264;9.632;2023-02-26T16:00:23;5.50;99.90
15095;DHT22;7648;52.264;9.632;2023-02-26T16:04:25;5.10;99.90
15095;DHT22;7648;52.264;9.632;2023-02-26T16:08:28;4.80;99.90
15095;DHT22;7648;52.264;9.632;2023-02-26T16:12:34;4.50;99.90
15095;DHT22;7648;52.264;9.632;2023-02-26T16:16:43;4.40;99.90
15095;DHT22;7648;52.264;9.632;2023-02-26T16:20:48;4.30;99.90
15095;DHT22;7648;52.264;9.632;2023-02-26T16:24:53;4.20;99.90
15095;DHT22;7648;52.264;9.632;2023-02-26T16:28:58;4.10;99.90
15095;DHT22;7648;52.264;9.632;2023-02-26T16:33:03;4.10;99.90
15095;DHT22;7648;52.264;9.632;2023-02-26T16:37:26;4.00;99.90
15095;DHT22;7648;52.264;9.632;2023-02-26T16:41:33;4.00;99.90
15095;DHT22;7648;52.264;9.632;2023-02-26T16:45:46;3.90;99.90
15095;DHT22;7648;52.264;9.632;2023-02-26T16:49:51;3.90;99.90
15095;DHT22;7648;52.264;9.632;2023-02-26T16:53:56;3.80;99.90
15095;DHT22;7648;52.264;9.632;2023-02-26T16:57:59;3.80;99.90
15095;DHT22;7648;52.264;9.632;2023-02-26T17:02:04;3.70;99.90
15095;DHT22;7648;52.264;9.632;2023-02-26T17:06:16;3.70;99.90
15095;DHT22;7648;52.264;9.632;2023-02-26T17:10:25;3.70;99.90
15095;DHT22;7648;52.264;9.632;2023-02-26T17:14:35;3.60;99.90
15095;DHT22;7648;52.264;9.632;2023-02-26T17:18:39;3.50;99.90
15095;DHT22;7648;52.264;9.632;2023-02-26T17:22:43;3.40;99.90
15095;DHT22;7648;52.264;9.632;2023-02-26T17:26:46;3.40;99.90
15095;DHT22;7648;52.264;9.632;2023-02-26T17:30:48;3.30;99.90
15095;DHT22;7648;52.264;9.632;2023-02-26T17:34:50;3.30;99.90
15095;DHT22;7648;52.264;9.632;2023-02-26T17:38:54;3.20;99.90
15095;DHT22;7648;52.264;9.632;2023-02-26T17:42:56;3.20;99.90
15095;DHT22;7648;52.264;9.632;2023-02-26T17:46:59;3.20;99.90
15095;DHT22;7648;52.264;9.632;2023-02-26T17:51:01;3.20;99.90
15095;DHT22;7648;52.264;9.632;2023-02-26T17:55:05;3.00;99.90
15095;DHT22;7648;52.264;9.632;2023-02-26T17:59:08;2.90;99.90
15095;DHT22;7648;52.264;9.632;2023-02-26T18:03:12;2.90;99.90
15095;DHT22;7648;52.264;9.632;2023-02-26T18:07:15;2.80;99.90
15095;DHT22;7648;52.264;9.632;2023-02-26T18:11:18;2.80;99.90
15095;DHT22;7648;52.264;9.632;2023-02-26T18:15:23;2.80;99.90
15095;DHT22;7648;52.264;9.632;2023-02-26T18:19:25;2.80;99.90
15095;DHT22;7648;52.264;9.632;2023-02-26T18:23:27;2.70;99.90
15095;DHT22;7648;52.264;9.632;2023-02-26T18:27:31;2.70;99.90
15095;DHT22;7648;52.264;9.632;2023-02-26T18:31:33;2.60;99.90
15095;DHT22;7648;52.264;9.632;2023-02-26T18:35:35;2.50;99.90
15095;DHT22;7648;52.264;9.632;2023-02-26T18:39:39;2.40;99.90
15095;DHT22;7648;52.264;9.632;2023-02-26T18:43:42;2.30;99.90
15095;DHT22;7648;52.264;9.632;2023-02-26T18:47:45;2.30;99.90
15095;DHT22;7648;52.264;9.632;2023-02-26T18:51:47;2.20;99.90
15095;DHT22;7648;52.264;9.632;2023-02-26T18:55:49;2.20;99.90
15095;DHT22;7648;52.264;9.632;2023-02-26T18:59:53;2.20;99.90
15095;DHT22;7648;52.264;9.632;2023-02-26T19:03:55;2.10;99.90
15095;DHT22;7648;52.264;9.632;2023-02-26T19:07:57;2.10;99.90
15095;DHT22;7648;52.264;9.632;2023-02-26T19:11:59;2.00;99.90
15095;DHT22;7648;52.264;9.632;2023-02-26T19:16:02;2.10;99.90
15095;DHT22;7648;52.264;9.632;2023-02-26T19:20:06;2.10;99.90
15095;DHT22;7648;52.264;9.632;2023-02-26T19:24:10;2.10;99.90
15095;DHT22;7648;52.264;9.632;2023-02-26T19:28:12;2.10;99.90
15095;DHT22;7648;52.264;9.632;2023-02-26T19:32:15;2.00;99.90
15095;DHT22;7648;52.264;9.632;2023-02-26T19:36:17;2.00;99.90
15095;DHT22;7648;52.264;9.632;2023-02-26T19:40:21;1.90;99.90
15095;DHT22;7648;52.264;9.632;2023-02-26T19:44:24;1.80;99.90
15095;DHT22;7648;52.264;9.632;2023-02-26T19:48:28;1.60;99.90
15095;DHT22;7648;52.264;9.632;2023-02-26T19:52:31;1.50;99.90
15095;DHT22;7648;52.264;9.632;2023-02-26T19:56:33;1.30;99.90
15095;DHT22;7648;52.264;9.632;2023-02-26T20:00:36;1.30;99.90
15095;DHT22;7648;52.264;9.632;2023-02-26T20:04:39;1.10;99.90
15095;DHT22;7648;52.264;9.632;2023-02-26T20:08:41;1.00;99.90
15095;DHT22;7648;52.264;9.632;2023-02-26T20:12:44;0.90;99.90
15095;DHT22;7648;52.264;9.632;2023-02-26T20:16:46;0.80;99.90
15095;DHT22;7648;52.264;9.632;2023-02-26T20:20:49;0.80;99.90
15095;DHT22;7648;52.264;9.632;2023-02-26T20:24:51;0.70;99.90
15095;DHT22;7648;52.264;9.632;2023-02-26T20:28:53;0.60;99.90
15095;DHT22;7648;52.264;9.632;2023-02-26T20:32:55;0.60;99.90
15095;DHT22;7648;52.264;9.632;2023-02-26T20:36:58;0.50;99.90
15095;DHT22;7648;52.264;9.632;2023-02-26T20:41:00;0.40;99.90
15095;DHT22;7648;52.264;9.632;2023-02-26T20:45:02;0.30;99.90
15095;DHT22;7648;52.264;9.632;2023-02-26T20:49:04;0.30;99.90
15095;DHT22;7648;52.264;9.632;2023-02-26T20:53:12;0.30;99.90
15095;DHT22;7648;52.264;9.632;2023-02-26T20:57:14;0.30;99.90
15095;DHT22;7648;52.264;9.632;2023-02-26T21:01:16;0.30;99.90
15095;DHT22;7648;52.264;9.632;2023-02-26T21:05:18;0.30;99.90
15095;DHT22;7648;52.264;9.632;2023-02-26T21:09:21;0.20;99.90
15095;DHT22;7648;52.264;9.632;2023-02-26T21:13:23;0.20;99.90
15095;DHT22;7648;52.264;9.632;2023-02-26T21:17:25;0.10;99.90
15095;DHT22;7648;52.264;9.632;2023-02-26T21:21:27;0.00;99.90
15095;DHT22;7648;52.264;9.632;2023-02-26T21:25:31;0.00;99.90
15095;DHT22;7648;52.264;9.632;2023-02-26T21:29:33;0.00;99.90
15095;DHT22;7648;52.264;9.632;2023-02-26T21:33:34;0.00;99.90
15095;DHT22;7648;52.264;9.632;2023-02-26T21:37:36;0.00;99.90
15095;DHT22;7648;52.264;9.632;2023-02-26T21:41:40;0.00;99.90
15095;DHT22;7648;52.264;9.632;2023-02-26T21:45:42;0.00;99.90
15095;DHT22;7648;52.264;9.632;2023-02-26T21:49:43;-0.10;99.90
15095;DHT22;7648;52.264;9.632;2023-02-26T21:53:46;-0.20;99.90
15095;DHT22;7648;52.264;9.632;2023-02-26T21:57:50;-0.20;99.90
15095;DHT22;7648;52.264;9.632;2023-02-26T22:01:52;-0.20;99.90
15095;DHT22;7648;52.264;9.632;2023-02-26T22:05:54;-0.30;99.90
15095;DHT22;7648;52.264;9.632;2023-02-26T22:09:56;-0.40;99.90
15095;DHT22;7648;52.264;9.632;2023-02-26T22:13:59;-0.40;99.90
15095;DHT22;7648;52.264;9.632;2023-02-26T22:18:01;-0.50;99.90
15095;DHT22;7648;52.264;9.632;2023-02-26T22:22:03;-0.50;99.90
15095;DHT22;7648;52.264;9.632;2023-02-26T22:26:05;-0.50;99.90
15095;DHT22;7648;52.264;9.632;2023-02-26T22:30:10;-0.70;99.90
15095;DHT22;7648;52.264;9.632;2023-02-26T22:34:12;-0.70;99.90
15095;DHT22;7648;52.264;9.632;2023-02-26T22:38:14;-0.60;99.90
15095;DHT22;7648;52.264;9.632;2023-02-26T22:42:16;-0.70;99.90
15095;DHT22;7648;52.264;9.632;2023-02-26T22:46:19;-0.70;99.90
15095;DHT22;7648;52.264;9.632;2023-02-26T22:50:23;-0.70;99.90
15095;DHT22;7648;52.264;9.632;2023-02-26T22:54:25;-0.70;99.90
15095;DHT22;7648;52.264;9.632;2023-02-26T22:58:27;-0.70;99.90
15095;DHT22;7648;52.264;9.632;2023-02-26T23:02:31;-0.70;99.90
15095;DHT22;7648;52.264;9.632;2023-02-26T23:06:33;-0.70;99.90
15095;DHT22;7648;52.264;9.632;2023-02-26T23:10:36;-0.80;99.90
15095;DHT22;7648;52.264;9.632;2023-02-26T23:14:38;-0.80;99.90
15095;DHT22;7648;52.264;9.632;2023-02-26T23:18:41;-0.90;99.90
15095;DHT22;7648;52.264;9.632;2023-02-26T23:22:45;-0.90;99.90
15095;DHT22;7648;52.264;9.632;2023-02-26T23:26:47;-1.00;99.90
15095;DHT22;7648;52.264;9.632;2023-02-26T23:30:48;-1.00;99.90
15095;DHT22;7648;52.264;9.632;2023-02-26T23:34:52;-1.00;99.90
15095;DHT22;7648;52.264;9.632;2023-02-26T23:38:54;-1.00;99.90
15095;DHT22;7648;52.264;9.632;2023-02-26T23:42:56;-1.10;99.90
15095;DHT22;7648;52.264;9.632;2023-02-26T23:46:57;-1.30;99.90
15095;DHT22;7648;52.264;9.632;2023-02-26T23:51:01;-1.40;99.90
15095;DHT22;7648;52.264;9.632;2023-02-26T23:55:03;-1.30;99.90
15095;DHT22;7648;52.264;9.632;2023-02-26T23:59:06;-1.30;99.90
